Vineyard Haven, Massachusetts
Current Conditions -  °F | °C
As of 7:53 PM on Monday 24 Nov 2014 (Local Time) from KMVY Reporting Station
Haze Haze  
Wind Chill: 59°   Ceiling: 1400
Heat Index: 59°   Visibility: 6mi
Dew Point: 58°   Wind: 18mph
Humidity: 96%   Direction: 210°SSW
Pressure: 29.75"   Gusts: 28mph
Location:  41.46°N, 70.61°W
Report Text: KMVY 250053Z AUTO 21016G24KT 6SM BR BKN014 OVC120 15/14 A2975 RMK AO2 SLP073 T01500144
Loading
Personal Weather Stations






























Interactive Weather Map New forecast layout! Learn more

10-Day Weather Forecast

Advertisements
Track Severe Weather on mobile